Spabunker Treinta — ECIK — position and weather

sailwx.info

Track history (hours):
 
Tides and Currents Weather Stations Pressure Air Temp Water Temp Dewpoint Dewpoint Depression Visibility Wind Speed Wind Dir Waves Ship Positions

Spabunker Treinta

Last reported at 2018-Jun-25 15:30 UTC. Time now 2018-Jun-25 15:56 UTC.
Position N 41°21' E 002°09'.

Length 86 m; draft 5.6 m.

Type: Tanker. MMSI: 224142890.

Date/timePositionNaut miles runAvg speedWind from/ knotsBaromVisibWave heightAir tempDewpointWater temp
2018-Jun-25 15:30N 41°21' E 002°09'0 0.0
2018-Jun-25 15:00N 41°21' E 002°09'0 0.0
2018-Jun-25 14:30N 41°21' E 002°09'0 0.0
2018-Jun-25 14:00N 41°21' E 002°09'0 0.0
2018-Jun-25 13:30N 41°21' E 002°09'0 0.0
2018-Jun-25 13:00N 41°21' E 002°09'0 0.0
2018-Jun-25 12:30N 41°21' E 002°09'0 0.0
2018-Jun-25 12:00N 41°21' E 002°09'0 0.0
2018-Jun-25 11:30N 41°21' E 002°09'0 0.0
2018-Jun-25 11:00N 41°21' E 002°09'0 0.0
2018-Jun-25 10:30N 41°21' E 002°09'0 0.0
2018-Jun-25 10:00N 41°21' E 002°09'0 0.0
2018-Jun-25 09:30N 41°21' E 002°09'0 0.0
2018-Jun-25 09:00N 41°21' E 002°09'0 0.0
2018-Jun-25 08:29N 41°21' E 002°09'0 0.0
2018-Jun-25 08:00N 41°21' E 002°09'0 0.0
2018-Jun-25 07:30N 41°21' E 002°09'0 0.0
2018-Jun-25 07:00N 41°21' E 002°09'0 0.0
2018-Jun-25 06:30N 41°21' E 002°09'0 0.1
2018-Jun-25 06:00N 41°21' E 002°09'1 1.7
2018-Jun-25 05:30N 41°21' E 002°10'0 0.0
2018-Jun-25 05:00N 41°21' E 002°10'0 0.0
2018-Jun-25 04:30N 41°21' E 002°10'0 0.0
2018-Jun-25 04:00N 41°21' E 002°10'0 0.0
2018-Jun-25 03:30N 41°21' E 002°10'0 0.0
2018-Jun-25 03:00N 41°21' E 002°10'0 0.0
2018-Jun-25 02:30N 41°21' E 002°10'0 0.0
2018-Jun-25 02:00N 41°21' E 002°10'0 0.0
2018-Jun-25 01:30N 41°21' E 002°10'0 0.0
2018-Jun-25 01:00N 41°21' E 002°10'0 0.0
2018-Jun-25 00:30N 41°21' E 002°10'0 0.0
2018-Jun-25 00:00N 41°21' E 002°10'0 0.0
2018-Jun-24 23:30N 41°21' E 002°10'0 0.0
2018-Jun-24 23:01N 41°21' E 002°10'3 5.1
2018-Jun-24 22:30N 41°19' E 002°09'0 0.0
2018-Jun-24 22:00N 41°19' E 002°09'0 0.0
2018-Jun-24 21:30N 41°19' E 002°09'0 0.0
2018-Jun-24 21:00N 41°19' E 002°09'0 0.0
2018-Jun-24 20:30N 41°19' E 002°09'0 0.0
2018-Jun-24 20:00N 41°19' E 002°09'0 0.0
2018-Jun-24 19:30N 41°19' E 002°09'0 0.0
2018-Jun-24 19:00N 41°19' E 002°09'0 0.0
2018-Jun-24 18:30N 41°19' E 002°09'0 0.0
2018-Jun-24 18:00N 41°19' E 002°09'0 0.0
2018-Jun-24 17:30N 41°19' E 002°09'2 3.6
2018-Jun-24 17:00N 41°20' E 002°10'0 0.9
2018-Jun-24 16:30N 41°21' E 002°10'0 0.0
2018-Jun-24 16:00N 41°21' E 002°10'0 0.0
2018-Jun-24 15:30N 41°21' E 002°10'0 0.0
2018-Jun-24 15:00N 41°21' E 002°10'0 0.0
2018-Jun-24 14:29N 41°21' E 002°10'0 0.0
2018-Jun-24 14:00N 41°21' E 002°10'0 0.0
2018-Jun-24 13:30N 41°21' E 002°10'0 0.0
2018-Jun-24 13:00N 41°21' E 002°10'0 0.0
2018-Jun-24 12:30N 41°21' E 002°10'0 0.0
2018-Jun-24 12:00N 41°21' E 002°10'0 0.0
2018-Jun-24 11:30N 41°21' E 002°10'0 0.0
2018-Jun-24 11:00N 41°21' E 002°10'0 0.0
2018-Jun-24 10:30N 41°21' E 002°10'0 1.0
2018-Jun-24 10:00N 41°21' E 002°10'0 0.1
2018-Jun-24 09:30N 41°21' E 002°10'0 0.0
2018-Jun-24 09:00N 41°21' E 002°10'0 0.0
2018-Jun-24 08:30N 41°21' E 002°10'0 0.0
2018-Jun-24 08:00N 41°21' E 002°10'0 0.0
2018-Jun-24 07:30N 41°21' E 002°10'0 0.0
2018-Jun-24 07:00N 41°21' E 002°10'0 0.0
2018-Jun-24 06:30N 41°21' E 002°10'0 0.0
2018-Jun-24 06:00N 41°21' E 002°10'0 0.0
2018-Jun-24 05:30N 41°21' E 002°10'0 0.9
2018-Jun-24 05:00N 41°21' E 002°10'1 1.1
2018-Jun-24 04:30N 41°22' E 002°11'0 0.0
2018-Jun-24 04:00N 41°22' E 002°11'0 0.0
2018-Jun-24 03:30N 41°22' E 002°11'0 0.0
2018-Jun-24 03:00N 41°22' E 002°11'0 0.0
2018-Jun-24 02:30N 41°22' E 002°11'0 0.0
2018-Jun-24 02:00N 41°22' E 002°11'0 0.0
2018-Jun-24 01:29N 41°22' E 002°11'0 0.0
2018-Jun-24 01:00N 41°22' E 002°11'0 0.0
2018-Jun-24 00:30N 41°22' E 002°11'0 0.0
2018-Jun-24 00:00N 41°22' E 002°11'0 0.0
2018-Jun-23 23:30N 41°22' E 002°11'0 0.0
2018-Jun-23 23:00N 41°22' E 002°11'0 0.0
2018-Jun-23 22:30N 41°22' E 002°11'0 0.0
2018-Jun-23 22:00N 41°22' E 002°11'0 0.0
2018-Jun-23 21:30N 41°22' E 002°11'0 0.0
2018-Jun-23 21:00N 41°22' E 002°11'0 0.0
2018-Jun-23 20:30N 41°22' E 002°11'0 0.0
2018-Jun-23 20:00N 41°22' E 002°11'0 0.0
2018-Jun-23 19:30N 41°22' E 002°11'0 0.0
2018-Jun-23 19:00N 41°22' E 002°11'0 0.0
2018-Jun-23 18:30N 41°22' E 002°11'0 0.0
2018-Jun-23 18:00N 41°22' E 002°11'0 0.0
2018-Jun-23 17:29N 41°22' E 002°11'0 0.0
2018-Jun-23 17:00N 41°22' E 002°11'0 0.0
2018-Jun-23 16:29N 41°22' E 002°11'0 0.0
2018-Jun-23 16:00N 41°22' E 002°11'0 0.0
2018-Jun-23 15:30N 41°22' E 002°11'0 0.0
2018-Jun-23 15:00N 41°22' E 002°11'0 0.0
2018-Jun-23 14:30N 41°22' E 002°11'0 0.0
2018-Jun-23 14:00N 41°22' E 002°11'0 0.0
2018-Jun-23 13:30N 41°22' E 002°11'0 0.0
2018-Jun-23 13:00N 41°22' E 002°11'0 0.0
2018-Jun-23 12:30N 41°22' E 002°11'0 0.0
2018-Jun-23 12:00N 41°22' E 002°11'0 0.0
2018-Jun-23 11:30N 41°22' E 002°11'0 0.0
2018-Jun-23 11:00N 41°22' E 002°11'0 0.0
2018-Jun-23 10:30N 41°22' E 002°11'0 0.0
2018-Jun-23 10:00N 41°22' E 002°11'0 0.0
2018-Jun-23 09:30N 41°22' E 002°11'0 0.0
2018-Jun-23 09:00N 41°22' E 002°11'0 0.0
2018-Jun-23 08:30N 41°22' E 002°11'0 0.0
2018-Jun-23 08:00N 41°22' E 002°11'0 0.0
2018-Jun-23 07:30N 41°22' E 002°11'0 0.0
2018-Jun-23 07:00N 41°22' E 002°11'0 0.0
2018-Jun-23 06:30N 41°22' E 002°11'0 0.0
2018-Jun-23 06:00N 41°22' E 002°11'0 0.0
2018-Jun-23 05:30N 41°22' E 002°11'0 0.0
2018-Jun-23 05:00N 41°22' E 002°11'0 0.0
2018-Jun-23 04:29N 41°22' E 002°11'0 0.0
2018-Jun-23 04:00N 41°22' E 002°11'0 0.0
2018-Jun-23 03:30N 41°22' E 002°11'0 0.0
2018-Jun-23 02:58N 41°22' E 002°11'0 0.0
2018-Jun-23 02:30N 41°22' E 002°11'0 0.0
2018-Jun-23 01:59N 41°22' E 002°11'0 0.0
2018-Jun-23 01:30N 41°22' E 002°11'0 0.0
2018-Jun-23 01:00N 41°22' E 002°11'0 0.0
2018-Jun-23 00:30N 41°22' E 002°11'0 0.0
2018-Jun-22 23:49N 41°22' E 002°11'0 0.0
2018-Jun-22 23:30N 41°22' E 002°11'0 0.0
2018-Jun-22 23:00N 41°22' E 002°11'0 0.0
2018-Jun-22 22:30N 41°22' E 002°11'0 0.0
2018-Jun-22 22:00N 41°22' E 002°11'0 0.0
2018-Jun-22 21:30N 41°22' E 002°11'0 0.0
2018-Jun-22 21:00N 41°22' E 002°11'0 0.0
2018-Jun-22 20:30N 41°22' E 002°11'0 0.0
2018-Jun-22 20:00N 41°22' E 002°11'0 0.0
2018-Jun-22 19:30N 41°22' E 002°11'0 0.5
2018-Jun-22 19:00N 41°22' E 002°11'3 6.4
2018-Jun-22 18:30N 41°19' E 002°09'0 0.2
2018-Jun-22 18:00N 41°19' E 002°09'0 0.0
2018-Jun-22 17:30N 41°19' E 002°09'0 0.0
2018-Jun-22 17:00N 41°19' E 002°09'0 0.0
2018-Jun-22 16:30N 41°19' E 002°09'0 0.0
2018-Jun-22 16:00N 41°19' E 002°09'0 0.0
2018-Jun-22 15:30N 41°19' E 002°09'0 0.0
2018-Jun-22 15:00N 41°19' E 002°09'0 0.0
2018-Jun-22 14:30N 41°19' E 002°09'0 0.0
2018-Jun-22 14:00N 41°19' E 002°09'0 0.0
2018-Jun-22 13:30N 41°19' E 002°09'0 0.0
2018-Jun-22 13:00N 41°19' E 002°09'0 0.0
2018-Jun-22 12:30N 41°19' E 002°09'0 0.0
2018-Jun-22 12:00N 41°19' E 002°09'2 4.1
2018-Jun-22 11:30N 41°20' E 002°10'1 1.3
2018-Jun-22 11:00N 41°21' E 002°09'0 0.0
2018-Jun-22 10:30N 41°21' E 002°09'0 0.0
2018-Jun-22 10:00N 41°21' E 002°09'0 0.0
2018-Jun-22 09:30N 41°21' E 002°09'0 0.0
2018-Jun-22 09:00N 41°21' E 002°09'0 0.0
2018-Jun-22 08:30N 41°21' E 002°09'0 0.0
2018-Jun-22 08:00N 41°21' E 002°09'0 0.0
2018-Jun-22 07:30N 41°21' E 002°09'0 0.0
2018-Jun-22 07:00N 41°21' E 002°09'0 0.0
2018-Jun-22 06:30N 41°21' E 002°09'0 0.0
2018-Jun-22 06:00N 41°21' E 002°09'0 0.0
2018-Jun-22 05:30N 41°21' E 002°09'0 0.0
2018-Jun-22 05:00N 41°21' E 002°09'0 0.0
2018-Jun-22 04:30N 41°21' E 002°09'0 0.0
2018-Jun-22 04:00N 41°21' E 002°09'0 0.0
2018-Jun-22 03:30N 41°21' E 002°09'0 0.0
2018-Jun-22 03:00N 41°21' E 002°09'0 0.0
2018-Jun-22 02:30N 41°21' E 002°09'0 0.0
2018-Jun-22 02:00N 41°21' E 002°09'0 0.0
2018-Jun-22 01:30N 41°21' E 002°09'0 0.0
2018-Jun-22 01:00N 41°21' E 002°09'0 0.0
2018-Jun-22 00:30N 41°21' E 002°09'0 0.0
2018-Jun-21 23:59N 41°21' E 002°09'0 0.0
2018-Jun-21 23:30N 41°21' E 002°09'0 0.0
2018-Jun-21 23:00N 41°21' E 002°09'0 0.0
2018-Jun-21 22:30N 41°21' E 002°09'0 0.0
2018-Jun-21 22:00N 41°21' E 002°09'0 0.0
2018-Jun-21 21:30N 41°21' E 002°09'0 0.0
2018-Jun-21 21:00N 41°21' E 002°09'0 0.0
2018-Jun-21 20:30N 41°21' E 002°09'0 0.0
2018-Jun-21 20:00N 41°21' E 002°09'0 0.4
2018-Jun-21 19:30N 41°21' E 002°09'0 0.4
2018-Jun-21 19:00N 41°21' E 002°10'0 0.0
2018-Jun-21 18:30N 41°21' E 002°10'0 0.0
2018-Jun-21 18:00N 41°21' E 002°10'0 0.0
2018-Jun-21 17:30N 41°21' E 002°10'0 0.0
2018-Jun-21 17:00N 41°21' E 002°10'0 0.0
2018-Jun-21 16:30N 41°21' E 002°10'0 0.0
2018-Jun-21 16:00N 41°21' E 002°10'0 0.0
2018-Jun-21 15:30N 41°21' E 002°10'0 0.0
2018-Jun-21 15:00N 41°21' E 002°10'0 0.0
2018-Jun-21 14:30N 41°21' E 002°10'0 0.0
2018-Jun-21 14:00N 41°21' E 002°10'0 0.0
2018-Jun-21 13:30N 41°21' E 002°10'0 0.0
2018-Jun-21 13:00N 41°21' E 002°10'0 0.0
2018-Jun-21 12:30N 41°21' E 002°10'0 0.0
2018-Jun-21 12:00N 41°21' E 002°10'0 0.0
2018-Jun-21 11:30N 41°21' E 002°10'0 0.0
2018-Jun-21 11:00N 41°21' E 002°10'0 0.0
2018-Jun-21 10:30N 41°21' E 002°10'0 0.0
2018-Jun-21 10:00N 41°21' E 002°10'0 0.0
2018-Jun-21 09:30N 41°21' E 002°10'0 0.0
2018-Jun-21 09:00N 41°21' E 002°10'0 0.0
2018-Jun-21 08:30N 41°21' E 002°10'0 0.0
2018-Jun-21 08:00N 41°21' E 002°10'0 0.0
2018-Jun-21 07:30N 41°21' E 002°10'0 0.0
2018-Jun-21 07:00N 41°21' E 002°10'0 0.0
2018-Jun-21 06:30N 41°21' E 002°10'0 0.0
2018-Jun-21 06:00N 41°21' E 002°10'0 0.1
2018-Jun-21 05:30N 41°21' E 002°10'2 3.7
2018-Jun-21 05:00N 41°19' E 002°09'1 1.3
2018-Jun-21 04:30N 41°18' E 002°09'0 0.0
2018-Jun-21 04:00N 41°18' E 002°09'0 0.0
2018-Jun-21 03:30N 41°18' E 002°09'0 0.0
2018-Jun-21 03:00N 41°18' E 002°09'0 0.0
2018-Jun-21 02:30N 41°18' E 002°09'0 0.0
2018-Jun-21 02:00N 41°18' E 002°09'0 0.1
2018-Jun-21 01:30N 41°18' E 002°09'0 0.0
2018-Jun-21 01:00N 41°18' E 002°09'0 0.0
2018-Jun-21 00:30N 41°18' E 002°09'0 0.0
2018-Jun-21 00:00N 41°18' E 002°09'0 0.0
2018-Jun-20 23:30N 41°18' E 002°09'0 0.0
2018-Jun-20 23:00N 41°18' E 002°09'0 0.0
2018-Jun-20 22:30N 41°18' E 002°09'0 0.0
2018-Jun-20 22:00N 41°18' E 002°09'0 0.0
2018-Jun-20 21:30N 41°18' E 002°09'0 0.0
2018-Jun-20 21:00N 41°18' E 002°09'0 0.0
2018-Jun-20 20:30N 41°18' E 002°09'0 0.0
2018-Jun-20 20:00N 41°18' E 002°09'0 0.0
2018-Jun-20 19:30N 41°18' E 002°09'0 0.0
2018-Jun-20 19:00N 41°18' E 002°09'0 0.0
2018-Jun-20 18:30N 41°18' E 002°09'0 0.0
2018-Jun-20 18:00N 41°18' E 002°09'0 0.0
2018-Jun-20 17:30N 41°18' E 002°09'0 0.0
2018-Jun-20 17:00N 41°18' E 002°09'0 0.0
2018-Jun-20 16:30N 41°18' E 002°09'0 0.0
2018-Jun-20 16:00N 41°18' E 002°09'0 0.0
2018-Jun-20 15:30N 41°18' E 002°09'0 0.0
2018-Jun-20 15:01N 41°18' E 002°09'0 0.1
2018-Jun-20 14:31N 41°18' E 002°09'0 0.0
2018-Jun-20 14:00N 41°18' E 002°09'1 1.9
2018-Jun-20 13:30N 41°19' E 002°10'1 2.9
2018-Jun-20 13:00N 41°20' E 002°09'0 0.0
2018-Jun-20 12:31N 41°20' E 002°09'0 0.0
2018-Jun-20 12:01N 41°20' E 002°09'0 0.0
2018-Jun-20 11:31N 41°20' E 002°09'0 0.0
2018-Jun-20 11:01N 41°20' E 002°09'0 0.0
2018-Jun-20 10:31N 41°20' E 002°09'0 0.0
2018-Jun-20 10:01N 41°20' E 002°09'0 0.0
2018-Jun-20 09:30N 41°20' E 002°09'0 0.0
2018-Jun-20 09:01N 41°20' E 002°09'0 0.0
2018-Jun-20 08:30N 41°20' E 002°09'0 0.0
2018-Jun-20 08:01N 41°20' E 002°09'0 0.0
2018-Jun-20 07:31N 41°20' E 002°09'0 0.0
2018-Jun-20 07:01N 41°20' E 002°09'0 0.0
2018-Jun-20 06:31N 41°20' E 002°09'0 0.0
2018-Jun-20 06:00N 41°20' E 002°09'0 0.0
2018-Jun-20 05:30N 41°20' E 002°09'0 0.0
2018-Jun-20 05:01N 41°20' E 002°09'0 0.0
2018-Jun-20 04:30N 41°20' E 002°09'0 0.0
2018-Jun-20 04:00N 41°20' E 002°09'0 0.0
2018-Jun-20 03:30N 41°20' E 002°09'0 0.0
2018-Jun-20 03:01N 41°20' E 002°09'0 0.0
2018-Jun-20 02:30N 41°20' E 002°09'0 0.0
2018-Jun-20 02:01N 41°20' E 002°09'0 0.0
2018-Jun-20 01:30N 41°20' E 002°09'0 0.0
2018-Jun-20 01:01N 41°20' E 002°09'0 0.0
2018-Jun-20 00:30N 41°20' E 002°09'0 0.0
2018-Jun-20 00:01N 41°20' E 002°09'0 0.0
2018-Jun-19 23:30N 41°20' E 002°09'0 0.0
2018-Jun-19 23:00N 41°20' E 002°09'0 0.0
2018-Jun-19 22:31N 41°20' E 002°09'0 0.0
2018-Jun-19 22:01N 41°20' E 002°09'0 0.0
2018-Jun-19 21:31N 41°20' E 002°09'0 0.0
2018-Jun-19 21:01N 41°20' E 002°09'0 0.0
2018-Jun-19 20:31N 41°20' E 002°09'0 0.0
2018-Jun-19 20:01N 41°20' E 002°09'0 0.0
2018-Jun-19 19:31N 41°20' E 002°09'0 0.0
2018-Jun-19 19:00N 41°20' E 002°09'0 0.2
2018-Jun-19 18:30N 41°20' E 002°09'0 0.9
2018-Jun-19 18:00N 41°21' E 002°10'0 0.0
2018-Jun-19 17:31N 41°21' E 002°10'0 0.0
2018-Jun-19 17:01N 41°21' E 002°10'0 0.0
2018-Jun-19 16:31N 41°21' E 002°10'0 0.0
2018-Jun-19 16:00N 41°21' E 002°10'0 0.0
2018-Jun-19 15:31N 41°21' E 002°10'0 0.0
2018-Jun-19 15:00N 41°21' E 002°10'0 0.0
2018-Jun-19 14:30N 41°21' E 002°10'0 0.0
2018-Jun-19 14:01N 41°21' E 002°10'0 0.0
2018-Jun-19 13:31N 41°21' E 002°10'0 0.0
2018-Jun-19 13:01N 41°21' E 002°10'0 0.0
2018-Jun-19 12:31N 41°21' E 002°10'0 0.0
2018-Jun-19 12:00N 41°21' E 002°10'0 0.0
2018-Jun-19 11:30N 41°21' E 002°10'0 0.0
2018-Jun-19 11:00N 41°21' E 002°10'0 0.0
2018-Jun-19 10:31N 41°21' E 002°10'0 0.0
2018-Jun-19 10:01N 41°21' E 002°10'0 0.0
2018-Jun-19 09:31N 41°21' E 002°10'0 0.0
2018-Jun-19 09:01N 41°21' E 002°10'0 0.0
2018-Jun-19 08:30N 41°21' E 002°10'0 0.0
2018-Jun-19 08:00N 41°21' E 002°10'0 0.0
2018-Jun-19 07:30N 41°21' E 002°10'0 0.0
2018-Jun-19 07:00N 41°21' E 002°10'0 0.0
2018-Jun-19 06:30N 41°21' E 002°10'0 0.0
2018-Jun-19 06:01N 41°21' E 002°10'0 0.0
2018-Jun-19 05:31N 41°21' E 002°10'0 0.0
2018-Jun-19 05:01N 41°21' E 002°10'0 0.0
2018-Jun-19 04:31N 41°21' E 002°10'0 0.0
2018-Jun-19 04:01N 41°21' E 002°10'0 0.0
2018-Jun-19 03:31N 41°21' E 002°10'0 0.0
2018-Jun-19 03:00N 41°21' E 002°10'0 0.0
2018-Jun-19 02:30N 41°21' E 002°10'0 0.0
2018-Jun-19 02:00N 41°21' E 002°10'0 0.0
2018-Jun-19 01:31N 41°21' E 002°10'0 0.0
2018-Jun-19 01:00N 41°21' E 002°10'0 0.0
2018-Jun-19 00:30N 41°21' E 002°10'0 0.0
2018-Jun-19 00:01N 41°21' E 002°10'0 0.0
2018-Jun-18 23:31N 41°21' E 002°10'0 0.0
2018-Jun-18 23:01N 41°21' E 002°10'0 0.0
2018-Jun-18 22:31N 41°21' E 002°10'0 0.0
2018-Jun-18 22:01N 41°21' E 002°10'0 0.0
2018-Jun-18 21:30N 41°21' E 002°10'0 0.0
2018-Jun-18 21:00N 41°21' E 002°10'0 0.0
2018-Jun-18 20:31N 41°21' E 002°10'0 0.0
2018-Jun-18 20:01N 41°21' E 002°10'0 0.0
2018-Jun-18 19:31N 41°21' E 002°10'0 0.0
2018-Jun-18 19:01N 41°21' E 002°10'0 0.0
2018-Jun-18 18:31N 41°21' E 002°10'0 0.0
2018-Jun-18 18:00N 41°21' E 002°10'0 0.1
2018-Jun-18 17:31N 41°21' E 002°10'1 1.4
2018-Jun-18 17:00N 41°21' E 002°10'0 0.0
2018-Jun-18 16:30N 41°21' E 002°10'0 0.1
2018-Jun-18 16:00N 41°21' E 002°10'0 0.1
2018-Jun-18 15:31N 41°21' E 002°10'0 0.0
2018-Jun-18 15:01N 41°21' E 002°10'0 0.0
2018-Jun-18 14:29N 41°21' E 002°10'0 0.0
2018-Jun-18 13:57N 41°21' E 002°10'0 0.0
2018-Jun-18 13:31N 41°21' E 002°10'0 0.0
2018-Jun-18 13:01N 41°21' E 002°10'0 0.0
2018-Jun-18 12:30N 41°21' E 002°10'0 0.0
2018-Jun-18 12:01N 41°21' E 002°10'0 0.0
2018-Jun-18 11:26N 41°21' E 002°10'0 0.0
2018-Jun-18 11:00N 41°21' E 002°10'0 0.0
2018-Jun-18 10:30N 41°21' E 002°10'0 0.0
2018-Jun-18 10:00N 41°21' E 002°10'0 0.0
2018-Jun-18 09:30N 41°21' E 002°10'0 0.0
2018-Jun-18 09:00N 41°21' E 002°10'0 0.0
2018-Jun-18 08:30N 41°21' E 002°10'0 0.0
2018-Jun-18 08:01N 41°21' E 002°10'0 0.0
2018-Jun-18 07:30N 41°21' E 002°10'0 0.1
2018-Jun-18 07:00N 41°21' E 002°10'0 0.1
2018-Jun-18 06:31N 41°21' E 002°10'1 1.5
2018-Jun-18 06:00N 41°21' E 002°10'0 0.0
2018-Jun-18 05:31N 41°21' E 002°10'0 0.0
2018-Jun-18 05:01N 41°21' E 002°10'0 0.0
2018-Jun-18 04:30N 41°21' E 002°10'0 0.0
2018-Jun-18 04:00N 41°21' E 002°10'0 0.0
2018-Jun-18 03:31N 41°21' E 002°10'0 0.0
2018-Jun-18 03:00N 41°21' E 002°10'0 0.0
2018-Jun-18 02:31N 41°21' E 002°10'0 0.0
2018-Jun-18 02:01N 41°21' E 002°10'0 0.0
2018-Jun-18 01:30N 41°21' E 002°10'0 0.0
2018-Jun-18 01:01N 41°21' E 002°10'0 0.0
2018-Jun-18 00:30N 41°21' E 002°10'0 0.0
2018-Jun-18 00:00N 41°21' E 002°10'0 0.0
2018-Jun-17 23:31N 41°21' E 002°10'0 0.0
2018-Jun-17 23:00N 41°21' E 002°10'0 0.0
2018-Jun-17 22:30N 41°21' E 002°10'0 0.0
2018-Jun-17 22:01N 41°21' E 002°10'0 0.0
2018-Jun-17 21:31N 41°21' E 002°10'0 0.0
2018-Jun-17 21:00N 41°21' E 002°10'0 0.0
2018-Jun-17 20:31N 41°21' E 002°10'0 0.0
2018-Jun-17 20:01N 41°21' E 002°10'0 0.0
2018-Jun-17 19:31N 41°21' E 002°10'0 0.0
2018-Jun-17 19:01N 41°21' E 002°10'0 0.0
2018-Jun-17 18:31N 41°21' E 002°10'0 0.0
2018-Jun-17 18:01N 41°21' E 002°10'0 0.0
2018-Jun-17 17:31N 41°21' E 002°10'0 0.0
2018-Jun-17 17:00N 41°21' E 002°10'0 0.0
2018-Jun-17 16:31N 41°21' E 002°10'0 0.0
2018-Jun-17 16:01N 41°21' E 002°10'0 0.0
2018-Jun-17 15:30N 41°21' E 002°10'0 0.0
2018-Jun-17 15:01N 41°21' E 002°10'0 0.0
2018-Jun-17 14:30N 41°21' E 002°10'0 0.0
2018-Jun-17 14:00N 41°21' E 002°10'0 0.0
2018-Jun-17 13:31N 41°21' E 002°10'0 0.0
2018-Jun-17 13:01N 41°21' E 002°10'0 0.0
2018-Jun-17 12:31N 41°21' E 002°10'0 0.0
2018-Jun-17 12:00N 41°21' E 002°10'0 0.0
2018-Jun-17 11:31N 41°21' E 002°10'0 0.0
2018-Jun-17 11:00N 41°21' E 002°10'0 0.0
2018-Jun-17 10:31N 41°21' E 002°10'0 0.0
2018-Jun-17 10:01N 41°21' E 002°10'0 0.0
2018-Jun-17 09:31N 41°21' E 002°10'0 0.0
2018-Jun-17 09:01N 41°21' E 002°10'0 0.0
2018-Jun-17 08:30N 41°21' E 002°10'0 0.0
2018-Jun-17 08:01N 41°21' E 002°10'0 0.0
2018-Jun-17 07:31N 41°21' E 002°10'0 0.0
2018-Jun-17 07:01N 41°21' E 002°10'0 0.0
2018-Jun-17 06:31N 41°21' E 002°10'0 0.0
2018-Jun-17 06:01N 41°21' E 002°10'0 0.0
2018-Jun-17 05:31N 41°21' E 002°10'0 0.0
2018-Jun-17 05:00N 41°21' E 002°10'0 0.0
2018-Jun-17 04:30N 41°21' E 002°10'0 0.0
2018-Jun-17 04:01N 41°21' E 002°10'0 0.0
2018-Jun-17 03:31N 41°21' E 002°10'0 0.0
2018-Jun-17 03:01N 41°21' E 002°10'0 0.0
2018-Jun-17 02:30N 41°21' E 002°10'0 0.0
2018-Jun-17 02:00N 41°21' E 002°10'0 0.0
2018-Jun-17 01:31N 41°21' E 002°10'0 0.0
2018-Jun-17 01:01N 41°21' E 002°10'0 0.0
2018-Jun-17 00:31N 41°21' E 002°10'0 0.0
2018-Jun-17 00:01N 41°21' E 002°10'0 0.0
2018-Jun-16 23:30N 41°21' E 002°10'0 0.0
2018-Jun-16 23:00N 41°21' E 002°10'0 0.0
2018-Jun-16 22:31N 41°21' E 002°10'0 0.0
2018-Jun-16 22:00N 41°21' E 002°10'0 0.0
2018-Jun-16 21:30N 41°21' E 002°10'0 0.0
2018-Jun-16 21:00N 41°21' E 002°10'0 0.0
2018-Jun-16 20:31N 41°21' E 002°10'0 0.0
2018-Jun-16 20:00N 41°21' E 002°10'0 0.0
2018-Jun-16 19:30N 41°21' E 002°10'0 0.0
2018-Jun-16 19:00N 41°21' E 002°10'0 0.0
2018-Jun-16 18:31N 41°21' E 002°10'0 0.0
2018-Jun-16 18:01N 41°21' E 002°10'0 0.0
2018-Jun-16 17:31N 41°21' E 002°10'0 0.0
2018-Jun-16 17:00N 41°21' E 002°10'0 0.0
2018-Jun-16 16:31N 41°21' E 002°10'0 0.0
2018-Jun-16 16:01N 41°21' E 002°10'0 0.0
2018-Jun-16 15:31N 41°21' E 002°10'0 0.0
2018-Jun-16 15:00N 41°21' E 002°10'0 0.0
2018-Jun-16 14:30N 41°21' E 002°10'0 0.0
2018-Jun-16 14:01N 41°21' E 002°10'0 0.0
2018-Jun-16 13:31N 41°21' E 002°10'0 0.0
2018-Jun-16 13:01N 41°21' E 002°10'0 0.0
2018-Jun-16 12:31N 41°21' E 002°10'0 0.0
2018-Jun-16 12:00N 41°21' E 002°10'0 0.0
2018-Jun-16 11:31N 41°21' E 002°10'0 0.0
2018-Jun-16 11:01N 41°21' E 002°10'0 0.0
2018-Jun-16 10:31N 41°21' E 002°10'1 1.0
2018-Jun-16 10:00N 41°21' E 002°10'0 0.0
2018-Jun-16 09:31N 41°21' E 002°10'0 0.0
2018-Jun-16 09:00N 41°21' E 002°10'0 0.0
2018-Jun-16 08:30N 41°21' E 002°10'0 0.0
2018-Jun-16 08:00N 41°21' E 002°10'0 0.0
2018-Jun-16 07:31N 41°21' E 002°10'0 0.0
2018-Jun-16 07:01N 41°21' E 002°10'0 0.0
2018-Jun-16 06:30N 41°21' E 002°10'0 0.0
2018-Jun-16 06:00N 41°21' E 002°10'0 0.0
2018-Jun-16 05:31N 41°21' E 002°10'0 0.0
2018-Jun-16 05:01N 41°21' E 002°10'0 0.0
2018-Jun-16 04:30N 41°21' E 002°10'0 0.0
2018-Jun-16 04:01N 41°21' E 002°10'0 0.0
2018-Jun-16 03:30N 41°21' E 002°10'0 0.1
2018-Jun-16 03:00N 41°21' E 002°10'1 2.2
2018-Jun-16 02:31N 41°20' E 002°09'0 0.0
2018-Jun-16 02:01N 41°20' E 002°09'0 0.0
2018-Jun-16 01:31N 41°20' E 002°09'0 0.0
2018-Jun-16 01:01N 41°20' E 002°09'0 0.0
2018-Jun-16 00:30N 41°20' E 002°09'0 0.0
2018-Jun-16 00:01N 41°20' E 002°09'0 0.0
2018-Jun-15 23:31N 41°20' E 002°09'0 0.0
2018-Jun-15 23:01N 41°20' E 002°09'0 0.0
2018-Jun-15 22:30N 41°20' E 002°09'0 0.0
2018-Jun-15 22:01N 41°20' E 002°09'0 0.0
2018-Jun-15 21:31N 41°20' E 002°09'0 0.0
2018-Jun-15 21:01N 41°20' E 002°09'0 0.0
2018-Jun-15 20:31N 41°20' E 002°09'0 0.0
2018-Jun-15 20:01N 41°20' E 002°09'0 0.0
2018-Jun-15 19:31N 41°20' E 002°09'0 0.0
2018-Jun-15 19:01N 41°20' E 002°09'0 0.0
2018-Jun-15 18:31N 41°20' E 002°09'0 0.0
2018-Jun-15 18:00N 41°20' E 002°09'0 0.0
2018-Jun-15 17:31N 41°20' E 002°09'0 0.0
2018-Jun-15 17:01N 41°20' E 002°09'0 0.0
2018-Jun-15 16:31N 41°20' E 002°09'0 0.0
2018-Jun-15 16:01N 41°20' E 002°09'0 0.0
2018-Jun-15 15:31N 41°20' E 002°09'  
Track history (hours):
 
Tides and Currents Weather Stations Pressure Air Temp Water Temp Dewpoint Dewpoint Depression Visibility Wind Speed Wind Dir Waves Ship Positions

Spabunker Treinta

Last reported at 2018-Jun-25 15:30 UTC. Time now 2018-Jun-25 15:56 UTC.
Position N 41°21' E 002°09'.

Length 86 m; draft 5.6 m.

Type: Tanker. MMSI: 224142890.

Date/timePositionNaut miles runAvg speedWind from/ knotsBaromVisibWave heightAir tempDewpointWater temp
2018-Jun-25 15:30N 41°21' E 002°09'0 0.0
2018-Jun-25 15:00N 41°21' E 002°09'0 0.0
2018-Jun-25 14:30N 41°21' E 002°09'0 0.0
2018-Jun-25 14:00N 41°21' E 002°09'0 0.0
2018-Jun-25 13:30N 41°21' E 002°09'0 0.0
2018-Jun-25 13:00N 41°21' E 002°09'0 0.0
2018-Jun-25 12:30N 41°21' E 002°09'0 0.0
2018-Jun-25 12:00N 41°21' E 002°09'0 0.0
2018-Jun-25 11:30N 41°21' E 002°09'0 0.0
2018-Jun-25 11:00N 41°21' E 002°09'0 0.0
2018-Jun-25 10:30N 41°21' E 002°09'0 0.0
2018-Jun-25 10:00N 41°21' E 002°09'0 0.0
2018-Jun-25 09:30N 41°21' E 002°09'0 0.0
2018-Jun-25 09:00N 41°21' E 002°09'0 0.0
2018-Jun-25 08:29N 41°21' E 002°09'0 0.0
2018-Jun-25 08:00N 41°21' E 002°09'0 0.0
2018-Jun-25 07:30N 41°21' E 002°09'0 0.0
2018-Jun-25 07:00N 41°21' E 002°09'0 0.0
2018-Jun-25 06:30N 41°21' E 002°09'0 0.1
2018-Jun-25 06:00N 41°21' E 002°09'1 1.7
2018-Jun-25 05:30N 41°21' E 002°10'0 0.0
2018-Jun-25 05:00N 41°21' E 002°10'0 0.0
2018-Jun-25 04:30N 41°21' E 002°10'0 0.0
2018-Jun-25 04:00N 41°21' E 002°10'0 0.0
2018-Jun-25 03:30N 41°21' E 002°10'0 0.0
2018-Jun-25 03:00N 41°21' E 002°10'0 0.0
2018-Jun-25 02:30N 41°21' E 002°10'0 0.0
2018-Jun-25 02:00N 41°21' E 002°10'0 0.0
2018-Jun-25 01:30N 41°21' E 002°10'0 0.0
2018-Jun-25 01:00N 41°21' E 002°10'0 0.0
2018-Jun-25 00:30N 41°21' E 002°10'0 0.0
2018-Jun-25 00:00N 41°21' E 002°10'0 0.0
2018-Jun-24 23:30N 41°21' E 002°10'0 0.0
2018-Jun-24 23:01N 41°21' E 002°10'3 5.1
2018-Jun-24 22:30N 41°19' E 002°09'0 0.0
2018-Jun-24 22:00N 41°19' E 002°09'0 0.0
2018-Jun-24 21:30N 41°19' E 002°09'0 0.0
2018-Jun-24 21:00N 41°19' E 002°09'0 0.0
2018-Jun-24 20:30N 41°19' E 002°09'0 0.0
2018-Jun-24 20:00N 41°19' E 002°09'0 0.0
2018-Jun-24 19:30N 41°19' E 002°09'0 0.0
2018-Jun-24 19:00N 41°19' E 002°09'0 0.0
2018-Jun-24 18:30N 41°19' E 002°09'0 0.0
2018-Jun-24 18:00N 41°19' E 002°09'0 0.0
2018-Jun-24 17:30N 41°19' E 002°09'2 3.6
2018-Jun-24 17:00N 41°20' E 002°10'0 0.9
2018-Jun-24 16:30N 41°21' E 002°10'0 0.0
2018-Jun-24 16:00N 41°21' E 002°10'0 0.0
2018-Jun-24 15:30N 41°21' E 002°10'0 0.0
2018-Jun-24 15:00N 41°21' E 002°10'0 0.0
2018-Jun-24 14:29N 41°21' E 002°10'0 0.0
2018-Jun-24 14:00N 41°21' E 002°10'0 0.0
2018-Jun-24 13:30N 41°21' E 002°10'0 0.0
2018-Jun-24 13:00N 41°21' E 002°10'0 0.0
2018-Jun-24 12:30N 41°21' E 002°10'0 0.0
2018-Jun-24 12:00N 41°21' E 002°10'0 0.0
2018-Jun-24 11:30N 41°21' E 002°10'0 0.0
2018-Jun-24 11:00N 41°21' E 002°10'0 0.0
2018-Jun-24 10:30N 41°21' E 002°10'0 1.0
2018-Jun-24 10:00N 41°21' E 002°10'0 0.1
2018-Jun-24 09:30N 41°21' E 002°10'0 0.0
2018-Jun-24 09:00N 41°21' E 002°10'0 0.0
2018-Jun-24 08:30N 41°21' E 002°10'0 0.0
2018-Jun-24 08:00N 41°21' E 002°10'0 0.0
2018-Jun-24 07:30N 41°21' E 002°10'0 0.0
2018-Jun-24 07:00N 41°21' E 002°10'0 0.0
2018-Jun-24 06:30N 41°21' E 002°10'0 0.0
2018-Jun-24 06:00N 41°21' E 002°10'0 0.0
2018-Jun-24 05:30N 41°21' E 002°10'0 0.9
2018-Jun-24 05:00N 41°21' E 002°10'1 1.1
2018-Jun-24 04:30N 41°22' E 002°11'0 0.0
2018-Jun-24 04:00N 41°22' E 002°11'0 0.0
2018-Jun-24 03:30N 41°22' E 002°11'0 0.0
2018-Jun-24 03:00N 41°22' E 002°11'0 0.0
2018-Jun-24 02:30N 41°22' E 002°11'0 0.0
2018-Jun-24 02:00N 41°22' E 002°11'0 0.0
2018-Jun-24 01:29N 41°22' E 002°11'0 0.0
2018-Jun-24 01:00N 41°22' E 002°11'0 0.0
2018-Jun-24 00:30N 41°22' E 002°11'0 0.0
2018-Jun-24 00:00N 41°22' E 002°11'0 0.0
2018-Jun-23 23:30N 41°22' E 002°11'0 0.0
2018-Jun-23 23:00N 41°22' E 002°11'0 0.0
2018-Jun-23 22:30N 41°22' E 002°11'0 0.0
2018-Jun-23 22:00N 41°22' E 002°11'0 0.0
2018-Jun-23 21:30N 41°22' E 002°11'0 0.0
2018-Jun-23 21:00N 41°22' E 002°11'0 0.0
2018-Jun-23 20:30N 41°22' E 002°11'0 0.0
2018-Jun-23 20:00N 41°22' E 002°11'0 0.0
2018-Jun-23 19:30N 41°22' E 002°11'0 0.0
2018-Jun-23 19:00N 41°22' E 002°11'0 0.0
2018-Jun-23 18:30N 41°22' E 002°11'0 0.0
2018-Jun-23 18:00N 41°22' E 002°11'0 0.0
2018-Jun-23 17:29N 41°22' E 002°11'0 0.0
2018-Jun-23 17:00N 41°22' E 002°11'0 0.0
2018-Jun-23 16:29N 41°22' E 002°11'0 0.0
2018-Jun-23 16:00N 41°22' E 002°11'0 0.0
2018-Jun-23 15:30N 41°22' E 002°11'0 0.0
2018-Jun-23 15:00N 41°22' E 002°11'0 0.0
2018-Jun-23 14:30N 41°22' E 002°11'0 0.0
2018-Jun-23 14:00N 41°22' E 002°11'0 0.0
2018-Jun-23 13:30N 41°22' E 002°11'0 0.0
2018-Jun-23 13:00N 41°22' E 002°11'0 0.0
2018-Jun-23 12:30N 41°22' E 002°11'0 0.0
2018-Jun-23 12:00N 41°22' E 002°11'0 0.0
2018-Jun-23 11:30N 41°22' E 002°11'0 0.0
2018-Jun-23 11:00N 41°22' E 002°11'0 0.0
2018-Jun-23 10:30N 41°22' E 002°11'0 0.0
2018-Jun-23 10:00N 41°22' E 002°11'0 0.0
2018-Jun-23 09:30N 41°22' E 002°11'0 0.0
2018-Jun-23 09:00N 41°22' E 002°11'0 0.0
2018-Jun-23 08:30N 41°22' E 002°11'0 0.0
2018-Jun-23 08:00N 41°22' E 002°11'0 0.0
2018-Jun-23 07:30N 41°22' E 002°11'0 0.0
2018-Jun-23 07:00N 41°22' E 002°11'0 0.0
2018-Jun-23 06:30N 41°22' E 002°11'0 0.0
2018-Jun-23 06:00N 41°22' E 002°11'0 0.0
2018-Jun-23 05:30N 41°22' E 002°11'0 0.0
2018-Jun-23 05:00N 41°22' E 002°11'0 0.0
2018-Jun-23 04:29N 41°22' E 002°11'0 0.0
2018-Jun-23 04:00N 41°22' E 002°11'0 0.0
2018-Jun-23 03:30N 41°22' E 002°11'0 0.0
2018-Jun-23 02:58N 41°22' E 002°11'0 0.0
2018-Jun-23 02:30N 41°22' E 002°11'0 0.0
2018-Jun-23 01:59N 41°22' E 002°11'0 0.0
2018-Jun-23 01:30N 41°22' E 002°11'0 0.0
2018-Jun-23 01:00N 41°22' E 002°11'0 0.0
2018-Jun-23 00:30N 41°22' E 002°11'0 0.0
2018-Jun-22 23:49N 41°22' E 002°11'0 0.0
2018-Jun-22 23:30N 41°22' E 002°11'0 0.0
2018-Jun-22 23:00N 41°22' E 002°11'0 0.0
2018-Jun-22 22:30N 41°22' E 002°11'0 0.0
2018-Jun-22 22:00N 41°22' E 002°11'0 0.0
2018-Jun-22 21:30N 41°22' E 002°11'0 0.0
2018-Jun-22 21:00N 41°22' E 002°11'0 0.0
2018-Jun-22 20:30N 41°22' E 002°11'0 0.0
2018-Jun-22 20:00N 41°22' E 002°11'0 0.0
2018-Jun-22 19:30N 41°22' E 002°11'0 0.5
2018-Jun-22 19:00N 41°22' E 002°11'3 6.4
2018-Jun-22 18:30N 41°19' E 002°09'0 0.2
2018-Jun-22 18:00N 41°19' E 002°09'0 0.0
2018-Jun-22 17:30N 41°19' E 002°09'0 0.0
2018-Jun-22 17:00N 41°19' E 002°09'0 0.0
2018-Jun-22 16:30N 41°19' E 002°09'0 0.0
2018-Jun-22 16:00N 41°19' E 002°09'0 0.0
2018-Jun-22 15:30N 41°19' E 002°09'0 0.0
2018-Jun-22 15:00N 41°19' E 002°09'0 0.0
2018-Jun-22 14:30N 41°19' E 002°09'0 0.0
2018-Jun-22 14:00N 41°19' E 002°09'0 0.0
2018-Jun-22 13:30N 41°19' E 002°09'0 0.0
2018-Jun-22 13:00N 41°19' E 002°09'0 0.0
2018-Jun-22 12:30N 41°19' E 002°09'0 0.0
2018-Jun-22 12:00N 41°19' E 002°09'2 4.1
2018-Jun-22 11:30N 41°20' E 002°10'1 1.3
2018-Jun-22 11:00N 41°21' E 002°09'0 0.0
2018-Jun-22 10:30N 41°21' E 002°09'0 0.0
2018-Jun-22 10:00N 41°21' E 002°09'0 0.0
2018-Jun-22 09:30N 41°21' E 002°09'0 0.0
2018-Jun-22 09:00N 41°21' E 002°09'0 0.0
2018-Jun-22 08:30N 41°21' E 002°09'0 0.0
2018-Jun-22 08:00N 41°21' E 002°09'0 0.0
2018-Jun-22 07:30N 41°21' E 002°09'0 0.0
2018-Jun-22 07:00N 41°21' E 002°09'0 0.0
2018-Jun-22 06:30N 41°21' E 002°09'0 0.0
2018-Jun-22 06:00N 41°21' E 002°09'0 0.0
2018-Jun-22 05:30N 41°21' E 002°09'0 0.0
2018-Jun-22 05:00N 41°21' E 002°09'0 0.0
2018-Jun-22 04:30N 41°21' E 002°09'0 0.0
2018-Jun-22 04:00N 41°21' E 002°09'0 0.0
2018-Jun-22 03:30N 41°21' E 002°09'0 0.0
2018-Jun-22 03:00N 41°21' E 002°09'0 0.0
2018-Jun-22 02:30N 41°21' E 002°09'0 0.0
2018-Jun-22 02:00N 41°21' E 002°09'0 0.0
2018-Jun-22 01:30N 41°21' E 002°09'0 0.0
2018-Jun-22 01:00N 41°21' E 002°09'0 0.0
2018-Jun-22 00:30N 41°21' E 002°09'0 0.0
2018-Jun-21 23:59N 41°21' E 002°09'0 0.0
2018-Jun-21 23:30N 41°21' E 002°09'0 0.0
2018-Jun-21 23:00N 41°21' E 002°09'0 0.0
2018-Jun-21 22:30N 41°21' E 002°09'0 0.0
2018-Jun-21 22:00N 41°21' E 002°09'0 0.0
2018-Jun-21 21:30N 41°21' E 002°09'0 0.0
2018-Jun-21 21:00N 41°21' E 002°09'0 0.0
2018-Jun-21 20:30N 41°21' E 002°09'0 0.0
2018-Jun-21 20:00N 41°21' E 002°09'0 0.4
2018-Jun-21 19:30N 41°21' E 002°09'0 0.4
2018-Jun-21 19:00N 41°21' E 002°10'0 0.0
2018-Jun-21 18:30N 41°21' E 002°10'0 0.0
2018-Jun-21 18:00N 41°21' E 002°10'0 0.0
2018-Jun-21 17:30N 41°21' E 002°10'0 0.0
2018-Jun-21 17:00N 41°21' E 002°10'0 0.0
2018-Jun-21 16:30N 41°21' E 002°10'0 0.0
2018-Jun-21 16:00N 41°21' E 002°10'0 0.0
2018-Jun-21 15:30N 41°21' E 002°10'0 0.0
2018-Jun-21 15:00N 41°21' E 002°10'0 0.0
2018-Jun-21 14:30N 41°21' E 002°10'0 0.0
2018-Jun-21 14:00N 41°21' E 002°10'0 0.0
2018-Jun-21 13:30N 41°21' E 002°10'0 0.0
2018-Jun-21 13:00N 41°21' E 002°10'0 0.0
2018-Jun-21 12:30N 41°21' E 002°10'0 0.0
2018-Jun-21 12:00N 41°21' E 002°10'0 0.0
2018-Jun-21 11:30N 41°21' E 002°10'0 0.0
2018-Jun-21 11:00N 41°21' E 002°10'0 0.0
2018-Jun-21 10:30N 41°21' E 002°10'0 0.0
2018-Jun-21 10:00N 41°21' E 002°10'0 0.0
2018-Jun-21 09:30N 41°21' E 002°10'0 0.0
2018-Jun-21 09:00N 41°21' E 002°10'0 0.0
2018-Jun-21 08:30N 41°21' E 002°10'0 0.0
2018-Jun-21 08:00N 41°21' E 002°10'0 0.0
2018-Jun-21 07:30N 41°21' E 002°10'0 0.0
2018-Jun-21 07:00N 41°21' E 002°10'0 0.0
2018-Jun-21 06:30N 41°21' E 002°10'0 0.0
2018-Jun-21 06:00N 41°21' E 002°10'0 0.1
2018-Jun-21 05:30N 41°21' E 002°10'2 3.7
2018-Jun-21 05:00N 41°19' E 002°09'1 1.3
2018-Jun-21 04:30N 41°18' E 002°09'0 0.0
2018-Jun-21 04:00N 41°18' E 002°09'0 0.0
2018-Jun-21 03:30N 41°18' E 002°09'0 0.0
2018-Jun-21 03:00N 41°18' E 002°09'0 0.0
2018-Jun-21 02:30N 41°18' E 002°09'0 0.0
2018-Jun-21 02:00N 41°18' E 002°09'0 0.1
2018-Jun-21 01:30N 41°18' E 002°09'0 0.0
2018-Jun-21 01:00N 41°18' E 002°09'0 0.0
2018-Jun-21 00:30N 41°18' E 002°09'0 0.0
2018-Jun-21 00:00N 41°18' E 002°09'0 0.0
2018-Jun-20 23:30N 41°18' E 002°09'0 0.0
2018-Jun-20 23:00N 41°18' E 002°09'0 0.0
2018-Jun-20 22:30N 41°18' E 002°09'0 0.0
2018-Jun-20 22:00N 41°18' E 002°09'0 0.0
2018-Jun-20 21:30N 41°18' E 002°09'0 0.0
2018-Jun-20 21:00N 41°18' E 002°09'0 0.0
2018-Jun-20 20:30N 41°18' E 002°09'0 0.0
2018-Jun-20 20:00N 41°18' E 002°09'0 0.0
2018-Jun-20 19:30N 41°18' E 002°09'0 0.0
2018-Jun-20 19:00N 41°18' E 002°09'0 0.0
2018-Jun-20 18:30N 41°18' E 002°09'0 0.0
2018-Jun-20 18:00N 41°18' E 002°09'0 0.0
2018-Jun-20 17:30N 41°18' E 002°09'0 0.0
2018-Jun-20 17:00N 41°18' E 002°09'0 0.0
2018-Jun-20 16:30N 41°18' E 002°09'0 0.0
2018-Jun-20 16:00N 41°18' E 002°09'0 0.0
2018-Jun-20 15:30N 41°18' E 002°09'0 0.0
2018-Jun-20 15:01N 41°18' E 002°09'0 0.1
2018-Jun-20 14:31N 41°18' E 002°09'0 0.0
2018-Jun-20 14:00N 41°18' E 002°09'1 1.9
2018-Jun-20 13:30N 41°19' E 002°10'1 2.9
2018-Jun-20 13:00N 41°20' E 002°09'0 0.0
2018-Jun-20 12:31N 41°20' E 002°09'0 0.0
2018-Jun-20 12:01N 41°20' E 002°09'0 0.0
2018-Jun-20 11:31N 41°20' E 002°09'0 0.0
2018-Jun-20 11:01N 41°20' E 002°09'0 0.0
2018-Jun-20 10:31N 41°20' E 002°09'0 0.0
2018-Jun-20 10:01N 41°20' E 002°09'0 0.0
2018-Jun-20 09:30N 41°20' E 002°09'0 0.0
2018-Jun-20 09:01N 41°20' E 002°09'0 0.0
2018-Jun-20 08:30N 41°20' E 002°09'0 0.0
2018-Jun-20 08:01N 41°20' E 002°09'0 0.0
2018-Jun-20 07:31N 41°20' E 002°09'0 0.0
2018-Jun-20 07:01N 41°20' E 002°09'0 0.0
2018-Jun-20 06:31N 41°20' E 002°09'0 0.0
2018-Jun-20 06:00N 41°20' E 002°09'0 0.0
2018-Jun-20 05:30N 41°20' E 002°09'0 0.0
2018-Jun-20 05:01N 41°20' E 002°09'0 0.0
2018-Jun-20 04:30N 41°20' E 002°09'0 0.0
2018-Jun-20 04:00N 41°20' E 002°09'0 0.0
2018-Jun-20 03:30N 41°20' E 002°09'0 0.0
2018-Jun-20 03:01N 41°20' E 002°09'0 0.0
2018-Jun-20 02:30N 41°20' E 002°09'0 0.0
2018-Jun-20 02:01N 41°20' E 002°09'0 0.0
2018-Jun-20 01:30N 41°20' E 002°09'0 0.0
2018-Jun-20 01:01N 41°20' E 002°09'0 0.0
2018-Jun-20 00:30N 41°20' E 002°09'0 0.0
2018-Jun-20 00:01N 41°20' E 002°09'0 0.0
2018-Jun-19 23:30N 41°20' E 002°09'0 0.0
2018-Jun-19 23:00N 41°20' E 002°09'0 0.0
2018-Jun-19 22:31N 41°20' E 002°09'0 0.0
2018-Jun-19 22:01N 41°20' E 002°09'0 0.0
2018-Jun-19 21:31N 41°20' E 002°09'0 0.0
2018-Jun-19 21:01N 41°20' E 002°09'0 0.0
2018-Jun-19 20:31N 41°20' E 002°09'0 0.0
2018-Jun-19 20:01N 41°20' E 002°09'0 0.0
2018-Jun-19 19:31N 41°20' E 002°09'0 0.0
2018-Jun-19 19:00N 41°20' E 002°09'0 0.2
2018-Jun-19 18:30N 41°20' E 002°09'0 0.9
2018-Jun-19 18:00N 41°21' E 002°10'0 0.0
2018-Jun-19 17:31N 41°21' E 002°10'0 0.0
2018-Jun-19 17:01N 41°21' E 002°10'0 0.0
2018-Jun-19 16:31N 41°21' E 002°10'0 0.0
2018-Jun-19 16:00N 41°21' E 002°10'0 0.0
2018-Jun-19 15:31N 41°21' E 002°10'0 0.0
2018-Jun-19 15:00N 41°21' E 002°10'0 0.0
2018-Jun-19 14:30N 41°21' E 002°10'0 0.0
2018-Jun-19 14:01N 41°21' E 002°10'0 0.0
2018-Jun-19 13:31N 41°21' E 002°10'0 0.0
2018-Jun-19 13:01N 41°21' E 002°10'0 0.0
2018-Jun-19 12:31N 41°21' E 002°10'0 0.0
2018-Jun-19 12:00N 41°21' E 002°10'0 0.0
2018-Jun-19 11:30N 41°21' E 002°10'0 0.0
2018-Jun-19 11:00N 41°21' E 002°10'0 0.0
2018-Jun-19 10:31N 41°21' E 002°10'0 0.0
2018-Jun-19 10:01N 41°21' E 002°10'0 0.0
2018-Jun-19 09:31N 41°21' E 002°10'0 0.0
2018-Jun-19 09:01N 41°21' E 002°10'0 0.0
2018-Jun-19 08:30N 41°21' E 002°10'0 0.0
2018-Jun-19 08:00N 41°21' E 002°10'0 0.0
2018-Jun-19 07:30N 41°21' E 002°10'0 0.0
2018-Jun-19 07:00N 41°21' E 002°10'0 0.0
2018-Jun-19 06:30N 41°21' E 002°10'0 0.0
2018-Jun-19 06:01N 41°21' E 002°10'0 0.0
2018-Jun-19 05:31N 41°21' E 002°10'0 0.0
2018-Jun-19 05:01N 41°21' E 002°10'0 0.0
2018-Jun-19 04:31N 41°21' E 002°10'0 0.0
2018-Jun-19 04:01N 41°21' E 002°10'0 0.0
2018-Jun-19 03:31N 41°21' E 002°10'0 0.0
2018-Jun-19 03:00N 41°21' E 002°10'0 0.0
2018-Jun-19 02:30N 41°21' E 002°10'0 0.0
2018-Jun-19 02:00N 41°21' E 002°10'0 0.0
2018-Jun-19 01:31N 41°21' E 002°10'0 0.0
2018-Jun-19 01:00N 41°21' E 002°10'0 0.0
2018-Jun-19 00:30N 41°21' E 002°10'0 0.0
2018-Jun-19 00:01N 41°21' E 002°10'0 0.0
2018-Jun-18 23:31N 41°21' E 002°10'0 0.0
2018-Jun-18 23:01N 41°21' E 002°10'0 0.0
2018-Jun-18 22:31N 41°21' E 002°10'0 0.0
2018-Jun-18 22:01N 41°21' E 002°10'0 0.0
2018-Jun-18 21:30N 41°21' E 002°10'0 0.0
2018-Jun-18 21:00N 41°21' E 002°10'0 0.0
2018-Jun-18 20:31N 41°21' E 002°10'0 0.0
2018-Jun-18 20:01N 41°21' E 002°10'0 0.0
2018-Jun-18 19:31N 41°21' E 002°10'0 0.0
2018-Jun-18 19:01N 41°21' E 002°10'0 0.0
2018-Jun-18 18:31N 41°21' E 002°10'0 0.0
2018-Jun-18 18:00N 41°21' E 002°10'0 0.1
2018-Jun-18 17:31N 41°21' E 002°10'1 1.4
2018-Jun-18 17:00N 41°21' E 002°10'0 0.0
2018-Jun-18 16:30N 41°21' E 002°10'0 0.1
2018-Jun-18 16:00N 41°21' E 002°10'0 0.1
2018-Jun-18 15:31N 41°21' E 002°10'0 0.0
2018-Jun-18 15:01N 41°21' E 002°10'0 0.0
2018-Jun-18 14:29N 41°21' E 002°10'0 0.0
2018-Jun-18 13:57N 41°21' E 002°10'0 0.0
2018-Jun-18 13:31N 41°21' E 002°10'0 0.0
2018-Jun-18 13:01N 41°21' E 002°10'0 0.0
2018-Jun-18 12:30N 41°21' E 002°10'0 0.0
2018-Jun-18 12:01N 41°21' E 002°10'0 0.0
2018-Jun-18 11:26N 41°21' E 002°10'0 0.0
2018-Jun-18 11:00N 41°21' E 002°10'0 0.0
2018-Jun-18 10:30N 41°21' E 002°10'0 0.0
2018-Jun-18 10:00N 41°21' E 002°10'0 0.0
2018-Jun-18 09:30N 41°21' E 002°10'0 0.0
2018-Jun-18 09:00N 41°21' E 002°10'0 0.0
2018-Jun-18 08:30N 41°21' E 002°10'0 0.0
2018-Jun-18 08:01N 41°21' E 002°10'0 0.0
2018-Jun-18 07:30N 41°21' E 002°10'0 0.1
2018-Jun-18 07:00N 41°21' E 002°10'0 0.1
2018-Jun-18 06:31N 41°21' E 002°10'1 1.5
2018-Jun-18 06:00N 41°21' E 002°10'0 0.0
2018-Jun-18 05:31N 41°21' E 002°10'0 0.0
2018-Jun-18 05:01N 41°21' E 002°10'0 0.0
2018-Jun-18 04:30N 41°21' E 002°10'0 0.0
2018-Jun-18 04:00N 41°21' E 002°10'0 0.0
2018-Jun-18 03:31N 41°21' E 002°10'0 0.0
2018-Jun-18 03:00N 41°21' E 002°10'0 0.0
2018-Jun-18 02:31N 41°21' E 002°10'0 0.0
2018-Jun-18 02:01N 41°21' E 002°10'0 0.0
2018-Jun-18 01:30N 41°21' E 002°10'0 0.0
2018-Jun-18 01:01N 41°21' E 002°10'0 0.0
2018-Jun-18 00:30N 41°21' E 002°10'0 0.0
2018-Jun-18 00:00N 41°21' E 002°10'0 0.0
2018-Jun-17 23:31N 41°21' E 002°10'0 0.0
2018-Jun-17 23:00N 41°21' E 002°10'0 0.0
2018-Jun-17 22:30N 41°21' E 002°10'0 0.0
2018-Jun-17 22:01N 41°21' E 002°10'0 0.0
2018-Jun-17 21:31N 41°21' E 002°10'0 0.0
2018-Jun-17 21:00N 41°21' E 002°10'0 0.0
2018-Jun-17 20:31N 41°21' E 002°10'0 0.0
2018-Jun-17 20:01N 41°21' E 002°10'0 0.0
2018-Jun-17 19:31N 41°21' E 002°10'0 0.0
2018-Jun-17 19:01N 41°21' E 002°10'0 0.0
2018-Jun-17 18:31N 41°21' E 002°10'0 0.0
2018-Jun-17 18:01N 41°21' E 002°10'0 0.0
2018-Jun-17 17:31N 41°21' E 002°10'0 0.0
2018-Jun-17 17:00N 41°21' E 002°10'0 0.0
2018-Jun-17 16:31N 41°21' E 002°10'0 0.0
2018-Jun-17 16:01N 41°21' E 002°10'0 0.0
2018-Jun-17 15:30N 41°21' E 002°10'0 0.0
2018-Jun-17 15:01N 41°21' E 002°10'0 0.0
2018-Jun-17 14:30N 41°21' E 002°10'0 0.0
2018-Jun-17 14:00N 41°21' E 002°10'0 0.0
2018-Jun-17 13:31N 41°21' E 002°10'0 0.0
2018-Jun-17 13:01N 41°21' E 002°10'0 0.0
2018-Jun-17 12:31N 41°21' E 002°10'0 0.0
2018-Jun-17 12:00N 41°21' E 002°10'0 0.0
2018-Jun-17 11:31N 41°21' E 002°10'0 0.0
2018-Jun-17 11:00N 41°21' E 002°10'0 0.0
2018-Jun-17 10:31N 41°21' E 002°10'0 0.0
2018-Jun-17 10:01N 41°21' E 002°10'0 0.0
2018-Jun-17 09:31N 41°21' E 002°10'0 0.0
2018-Jun-17 09:01N 41°21' E 002°10'0 0.0
2018-Jun-17 08:30N 41°21' E 002°10'0 0.0
2018-Jun-17 08:01N 41°21' E 002°10'0 0.0
2018-Jun-17 07:31N 41°21' E 002°10'0 0.0
2018-Jun-17 07:01N 41°21' E 002°10'0 0.0
2018-Jun-17 06:31N 41°21' E 002°10'0 0.0
2018-Jun-17 06:01N 41°21' E 002°10'0 0.0
2018-Jun-17 05:31N 41°21' E 002°10'0 0.0
2018-Jun-17 05:00N 41°21' E 002°10'0 0.0
2018-Jun-17 04:30N 41°21' E 002°10'0 0.0
2018-Jun-17 04:01N 41°21' E 002°10'0 0.0
2018-Jun-17 03:31N 41°21' E 002°10'0 0.0
2018-Jun-17 03:01N 41°21' E 002°10'0 0.0
2018-Jun-17 02:30N 41°21' E 002°10'0 0.0
2018-Jun-17 02:00N 41°21' E 002°10'0 0.0
2018-Jun-17 01:31N 41°21' E 002°10'0 0.0
2018-Jun-17 01:01N 41°21' E 002°10'0 0.0
2018-Jun-17 00:31N 41°21' E 002°10'0 0.0
2018-Jun-17 00:01N 41°21' E 002°10'0 0.0
2018-Jun-16 23:30N 41°21' E 002°10'0 0.0
2018-Jun-16 23:00N 41°21' E 002°10'0 0.0
2018-Jun-16 22:31N 41°21' E 002°10'0 0.0
2018-Jun-16 22:00N 41°21' E 002°10'0 0.0
2018-Jun-16 21:30N 41°21' E 002°10'0 0.0
2018-Jun-16 21:00N 41°21' E 002°10'0 0.0
2018-Jun-16 20:31N 41°21' E 002°10'0 0.0
2018-Jun-16 20:00N 41°21' E 002°10'0 0.0
2018-Jun-16 19:30N 41°21' E 002°10'0 0.0
2018-Jun-16 19:00N 41°21' E 002°10'0 0.0
2018-Jun-16 18:31N 41°21' E 002°10'0 0.0
2018-Jun-16 18:01N 41°21' E 002°10'0 0.0
2018-Jun-16 17:31N 41°21' E 002°10'0 0.0
2018-Jun-16 17:00N 41°21' E 002°10'0 0.0
2018-Jun-16 16:31N 41°21' E 002°10'0 0.0
2018-Jun-16 16:01N 41°21' E 002°10'0 0.0
2018-Jun-16 15:31N 41°21' E 002°10'0 0.0
2018-Jun-16 15:00N 41°21' E 002°10'0 0.0
2018-Jun-16 14:30N 41°21' E 002°10'0 0.0
2018-Jun-16 14:01N 41°21' E 002°10'0 0.0
2018-Jun-16 13:31N 41°21' E 002°10'0 0.0
2018-Jun-16 13:01N 41°21' E 002°10'0 0.0
2018-Jun-16 12:31N 41°21' E 002°10'0 0.0
2018-Jun-16 12:00N 41°21' E 002°10'0 0.0
2018-Jun-16 11:31N 41°21' E 002°10'0 0.0
2018-Jun-16 11:01N 41°21' E 002°10'0 0.0
2018-Jun-16 10:31N 41°21' E 002°10'1 1.0
2018-Jun-16 10:00N 41°21' E 002°10'0 0.0
2018-Jun-16 09:31N 41°21' E 002°10'0 0.0
2018-Jun-16 09:00N 41°21' E 002°10'0 0.0
2018-Jun-16 08:30N 41°21' E 002°10'0 0.0
2018-Jun-16 08:00N 41°21' E 002°10'0 0.0
2018-Jun-16 07:31N 41°21' E 002°10'0 0.0
2018-Jun-16 07:01N 41°21' E 002°10'0 0.0
2018-Jun-16 06:30N 41°21' E 002°10'0 0.0
2018-Jun-16 06:00N 41°21' E 002°10'0 0.0
2018-Jun-16 05:31N 41°21' E 002°10'0 0.0
2018-Jun-16 05:01N 41°21' E 002°10'0 0.0
2018-Jun-16 04:30N 41°21' E 002°10'0 0.0
2018-Jun-16 04:01N 41°21' E 002°10'0 0.0
2018-Jun-16 03:30N 41°21' E 002°10'0 0.1
2018-Jun-16 03:00N 41°21' E 002°10'1 2.2
2018-Jun-16 02:31N 41°20' E 002°09'0 0.0
2018-Jun-16 02:01N 41°20' E 002°09'0 0.0
2018-Jun-16 01:31N 41°20' E 002°09'0 0.0
2018-Jun-16 01:01N 41°20' E 002°09'0 0.0
2018-Jun-16 00:30N 41°20' E 002°09'0 0.0
2018-Jun-16 00:01N 41°20' E 002°09'0 0.0
2018-Jun-15 23:31N 41°20' E 002°09'0 0.0
2018-Jun-15 23:01N 41°20' E 002°09'0 0.0
2018-Jun-15 22:30N 41°20' E 002°09'0 0.0
2018-Jun-15 22:01N 41°20' E 002°09'0 0.0
2018-Jun-15 21:31N 41°20' E 002°09'0 0.0
2018-Jun-15 21:01N 41°20' E 002°09'0 0.0
2018-Jun-15 20:31N 41°20' E 002°09'0 0.0
2018-Jun-15 20:01N 41°20' E 002°09'0 0.0
2018-Jun-15 19:31N 41°20' E 002°09'0 0.0
2018-Jun-15 19:01N 41°20' E 002°09'0 0.0
2018-Jun-15 18:31N 41°20' E 002°09'0 0.0
2018-Jun-15 18:00N 41°20' E 002°09'0 0.0
2018-Jun-15 17:31N 41°20' E 002°09'0 0.0
2018-Jun-15 17:01N 41°20' E 002°09'0 0.0
2018-Jun-15 16:31N 41°20' E 002°09'0 0.0
2018-Jun-15 16:01N 41°20' E 002°09'0 0.0
2018-Jun-15 15:31N 41°20' E 002°09'  

Dump ship's entire track history